METAR Data
IDs: Format: Raw Decoded Include TAF

Data at: 1726 UTC 21 Sep 2018

KSGR 211653Z 15011KT 10SM SCT025 SCT030 32/26 A2996 RMK AO2 SLP146 T03220261
KSGR 211644Z 16009KT 10SM SCT025 SCT033 32/26 A2996 RMK AO2 T03170261
KSGR 211635Z 15010KT 10SM BKN025 BKN036 32/26 A2996 RMK AO2 T03170261
KSGR 211553Z 16012KT 10SM SCT021 31/26 A2997 RMK AO2 LTG DSNT SE SLP148 T03110261
KSGR 211453Z 15009KT 10SM CLR 29/26 A2996 RMK AO2 SLP147 60000 T02940261 51007
KSGR 211353Z 13009KT 10SM CLR 29/26 A2996 RMK AO2 SLP145 T02890261
KSGR 211253Z 12004KT 10SM FEW021 SCT027 28/26 A2995 RMK AO2 RAE1158 SLP143 P0000 T02780256
KSGR 211153Z 12004KT 10SM -RA FEW080 SCT100 28/26 A2994 RMK AO2 RAB16 SLP140 P0000 60000 70013 T02780256 10278 20272 52008
KSGR 211053Z 12003KT 10SM BKN100 28/26 A2993 RMK AO2 SLP137 T02780256
KSGR 210953Z AUTO 16004KT 10SM CLR 27/26 A2993 RMK AO2 SLP135 T02720256
KSGR 210853Z AUTO 15005KT 10SM CLR 27/25 A2992 RMK AO2 SLP132 60000 T02720250 56011
KSGR 210753Z AUTO 15008KT 10SM CLR 28/25 A2992 RMK AO2 RAB32E41 SLP132 P0000 T02780250
KSGR 210653Z AUTO 15007KT 10SM CLR 28/25 A2994 RMK AO2 SLP139 T02780250
KSGR 210553Z AUTO 16007KT 10SM CLR 27/25 A2995 RMK AO2 SLP143 60000 T02720250 10289 20272 403280250 50001
KSGR 210453Z AUTO 15006KT 10SM CLR 28/24 A2996 RMK AO2 SLP146 T02780244
KSGR 210353Z AUTO 15007KT 10SM CLR 28/24 A2996 RMK AO2 RAE30 SLP146 P0000 T02780244
KSGR 210253Z AUTO 14007KT 10SM -RA FEW065 SCT100 28/25 A2995 RMK AO2 RAB48 SLP142 P0000 60000 T02830250 53011
KSGR 210153Z 16007KT 10SM CLR 28/25 A2994 RMK AO2 SLP138 T02780250
KSGR 210053Z 16008KT 10SM CLR 28/25 A2992 RMK AO2 SLP132 T02830250
KSGR 202353Z 17004KT 10SM CLR 28/26 A2992 RMK AO2 RAB05E21 SLP131 P0000 60013 T02830256 10328 20261 53006
KSGR 202253Z 00000KT 7SM SCT049 BKN095 27/24 A2990 RMK AO2 LTG DSNT N RAE32 SLP128 P0010 T02670244
KSGR 202229Z 28005KT 7SM -RA SCT035 SCT048 BKN080 27/23 A2990 RMK AO2 LTG DSNT N P0010 T02670233
KSGR 202228Z 28006KT 3SM -RA SCT035 SCT055 BKN080 26/23 A2990 RMK AO2 LTG DSNT N AND NW P0010 T02610233
KSGR 202220Z 25007G18KT 1 1/2SM +RA SCT035 BKN050 OVC080 27/23 A2991 RMK AO2 LTG DSNT N AND NW P0009 T02670228
KSGR 202153Z 18008G19KT 4SM RA FEW048 SCT070 BKN090 29/25 A2991 RMK AO2 RAB45 SLP127 P0003 T02890250
KSGR 202111Z 14008KT 10SM CLR 31/24 A2990 RMK AO2 LTG DSNT NE T03110239
KSGR 202053Z 15012KT 10SM 31/24 A2990 RMK AO2 LTG DSNT NE RAB14E23 SLP125 P0000 60000 T03110244 58013
KSGR 202022Z 12008KT 10SM -RA FEW002 SCT027 BKN041 31/23 A2991 RMK AO2 LTG DSNT N AND NE RAB14 P0000 T03060228 $
KSGR 202007Z 15009G15KT 120V200 10SM BKN027 BKN038 OVC046 30/25 A2993 RMK AO2 LTG DSNT N AND NE T03000250
KSGR 201953Z 25006KT 10SM SCT032 BKN040 BKN047 30/25 A2993 RMK AO2 LTG DSNT NW-NE TSB13E34 SLP135 T03000250
KSGR 201940Z 15010KT 10SM FEW045 BKN070 33/25 A2993 RMK AO2 LTG DSNT NE TSB13E34 T03280250
KSGR 201919Z 15008KT 10SM TS SCT070 31/23 A2994 RMK AO2 LTG DSNT NE TSB13 T03060233
KSGR 201853Z 11009KT 10SM VCTS CLR 31/24 A2993 RMK AO2 LTG DSNT SW RAE1755 SLP137 P0000 T03060239
KSGR 201851Z 11007KT 10SM VCTS CLR 31/24 A2994 RMK AO2 LTG DSNT SW RAE1755 P0000
KSGR 201815Z 14008KT 10SM SCT031 SCT040 BKN055 32/24 A2996 RMK AO2 LTG DSNT NE-SE RAE1755 P0000 T03170244
KSGR 201801Z 14007KT 10SM VCTS SCT033 SCT043 BKN070 32/24 A2996 RMK AO2 LTG DSNT E AND SE RAE1755 P0000 T03170244
KSGR 201753Z 14008KT 10SM -RA SCT033 SCT043 BKN085 31/24 A2996 RMK AO2 LTG DSNT E AND SE RAB46 SLP146 P0000 60000 T03110239 10322 20267 58004
KSGR 201744Z 13009KT 10SM VCTS FEW034 FEW043 SCT085 31/24 A2996 RMK AO2 LTG DSNT NE AND SE AND NW T03110239
KSGR 201701Z 15008KT 10SM SCT022 SCT030 31/25 A2998 RMK AO2 LTG DSNT NE AND S AND SW T03110250
KSGR 201653Z 14007KT 10SM BKN022 BKN032 31/25 A2999 RMK AO2 LTG DSNT NE AND S AND SW SLP155 T03110250
KSGR 201553Z 17009KT 10SM FEW024 31/25 A2998 RMK AO2 SLP153 T03110250
KSGR 201546Z 15008KT 10SM FEW023 SCT028 31/24 A2998 RMK AO2 T03060244
KSGR 201537Z 16009KT 10SM BKN023 31/25 A2998 RMK AO2 T03060250
KSGR 201453Z 15007KT 10SM FEW017 29/26 A2997 RMK AO2 SLP151 T02940256 51014
KSGR 201353Z 14006KT 10SM CLR 29/26 A2997 RMK AO2 SLP148 T02890256
KSGR 201253Z 00000KT 10SM CLR 27/25 A2995 RMK AO2 SLP141 T02670250
KSGR 201153Z 00000KT 10SM CLR 26/24 A2993 RMK AO2 RAB17E26 SLP137 P0000 60000 T02610244 10267 20250 55000
KSGR 201053Z 10003KT 10SM CLR 27/24 A2993 RMK AO2 SLP136 T02670244
KSGR 201019Z AUTO 10004KT 10SM FEW018 SCT023 27/24 A2993 RMK AO2 T02670244
KSGR 201011Z AUTO 10005KT 10SM SCT020 BKN025 27/24 A2993 RMK AO2 T02670244
KSGR 200953Z AUTO 00000KT 10SM SCT020 25/24 A2993 RMK AO2 SLP135 T02500239
KSGR 200853Z AUTO 00000KT 10SM CLR 26/24 A2993 RMK AO2 SLP137 T02560239 58007
KSGR 200753Z AUTO 00000KT 10SM CLR 26/24 A2995 RMK AO2 SLP142 T02560239
KSGR 200653Z AUTO 08005KT 10SM CLR 27/24 A2995 RMK AO2 SLP141 T02670239
KSGR 200553Z AUTO 00000KT 10SM CLR 25/23 A2995 RMK AO2 SLP143 T02500233 10311 20250 403500233 51007